Time;durP1;ratioP1;P1;durP2;ratioP2;P2;SDS_P1;SDS_P2;PMS_P1;PMS_P2;Temp;Humidity;BMP_temperature;BMP_pressure;BME280_temperature;BME280_humidity;BME280_pressure;Samples;Min_cycle;Max_cycle;Signal;HPM_P1;HPM_P2
2023/12/14 00:01:35;;;;;;;106.07;39.20;;;10.60;99.90;;;;;;5010359;28;20613;-70
2023/12/14 00:04:02;;;;;;;113.68;39.17;;;10.60;99.90;;;;;;5012495;28;20029;-70
2023/12/14 00:06:28;;;;;;;114.65;41.30;;;10.60;99.90;;;;;;5010489;28;20372;-71
2023/12/14 00:08:54;;;;;;;102.90;39.38;;;10.60;99.90;;;;;;5012757;28;20028;-70
2023/12/14 00:11:19;;;;;;;107.53;37.67;;;10.60;99.90;;;;;;5010423;28;20036;-70
2023/12/14 00:13:45;;;;;;;104.68;40.25;;;10.60;99.90;;;;;;5012446;28;20041;-72
2023/12/14 00:16:11;;;;;;;96.72;38.00;;;10.60;99.90;;;;;;5008909;28;20128;-70
2023/12/14 00:18:37;;;;;;;98.32;37.03;;;10.60;99.90;;;;;;5011195;28;20041;-71
2023/12/14 00:21:03;;;;;;;99.60;38.15;;;10.50;99.90;;;;;;5006424;28;20030;-71
2023/12/14 00:23:29;;;;;;;108.45;40.00;;;10.60;99.90;;;;;;5009379;28;20032;-73
2023/12/14 00:25:55;;;;;;;94.15;36.30;;;10.60;99.90;;;;;;4991456;28;20026;-70
2023/12/14 00:28:20;;;;;;;88.65;33.88;;;10.50;99.90;;;;;;5010567;28;20026;-71
2023/12/14 00:30:46;;;;;;;78.13;31.40;;;10.50;99.90;;;;;;5010176;28;20505;-72
2023/12/14 00:33:12;;;;;;;73.57;32.08;;;10.50;99.90;;;;;;5011038;28;20436;-70
2023/12/14 00:35:37;;;;;;;73.28;30.67;;;10.50;99.90;;;;;;5008210;28;20088;-74
2023/12/14 00:38:03;;;;;;;61.28;27.33;;;10.50;99.90;;;;;;5011494;28;20434;-70
2023/12/14 00:40:29;;;;;;;61.70;26.40;;;10.40;99.90;;;;;;5008605;28;20474;-73
2023/12/14 00:42:54;;;;;;;47.63;24.85;;;10.40;99.90;;;;;;5010351;28;20062;-75
2023/12/14 00:45:20;;;;;;;52.00;23.88;;;10.30;99.90;;;;;;4991071;28;20030;-72
2023/12/14 00:47:46;;;;;;;46.85;22.73;;;10.20;99.90;;;;;;5010623;28;20084;-71
2023/12/14 00:50:11;;;;;;;49.80;23.75;;;10.20;99.90;;;;;;5007946;28;20029;-71
2023/12/14 00:52:37;;;;;;;42.00;20.92;;;10.30;99.90;;;;;;5011065;28;20378;-70
2023/12/14 00:55:03;;;;;;;41.15;21.17;;;10.20;99.90;;;;;;5010392;28;20038;-71
2023/12/14 00:57:29;;;;;;;40.92;20.52;;;10.20;99.90;;;;;;5010077;28;20459;-72
2023/12/14 00:59:55;;;;;;;43.83;22.35;;;10.20;99.90;;;;;;5011940;28;20466;-70
2023/12/14 01:02:20;;;;;;;45.05;21.83;;;10.20;99.90;;;;;;5010491;28;20023;-73
2023/12/14 01:04:46;;;;;;;42.03;21.77;;;10.20;99.90;;;;;;5010089;28;20370;-72
2023/12/14 01:07:12;;;;;;;41.78;22.13;;;10.20;99.90;;;;;;5008906;28;20383;-71
2023/12/14 01:09:37;;;;;;;39.28;21.25;;;10.10;99.90;;;;;;5009591;28;20371;-74
2023/12/14 01:12:03;;;;;;;42.10;23.15;;;10.10;99.90;;;;;;5009088;28;20038;-70
2023/12/14 01:14:29;;;;;;;41.58;21.95;;;10.10;99.90;;;;;;5008126;28;20594;-72
2023/12/14 01:16:54;;;;;;;46.67;22.73;;;10.10;99.90;;;;;;5010508;28;20533;-71
2023/12/14 01:19:20;;;;;;;36.65;20.35;;;10.00;99.90;;;;;;5009165;28;20104;-72
2023/12/14 01:21:46;;;;;;;41.75;21.95;;;10.00;99.90;;;;;;5009489;28;20383;-71
2023/12/14 01:24:11;;;;;;;40.03;20.90;;;10.00;99.90;;;;;;5010380;28;20386;-75
2023/12/14 01:26:37;;;;;;;34.08;18.95;;;9.90;99.90;;;;;;5009153;28;20022;-71
2023/12/14 01:29:03;;;;;;;35.47;20.83;;;9.90;99.90;;;;;;5010948;28;20115;-71
2023/12/14 01:31:28;;;;;;;34.38;19.92;;;9.90;99.90;;;;;;5007831;28;20030;-72
2023/12/14 01:33:54;;;;;;;32.25;18.80;;;9.80;99.90;;;;;;5010401;28;20265;-76
2023/12/14 01:36:21;;;;;;;36.60;18.73;;;9.80;99.90;;;;;;5010559;28;20030;-71
2023/12/14 01:38:47;;;;;;;33.55;19.02;;;9.80;99.90;;;;;;5008334;28;20080;-71
2023/12/14 01:41:13;;;;;;;40.33;21.63;;;9.70;99.90;;;;;;5011316;28;20491;-73
2023/12/14 01:43:39;;;;;;;39.20;20.73;;;9.60;99.90;;;;;;5008732;28;20022;-72
2023/12/14 01:46:05;;;;;;;41.58;22.42;;;9.60;99.90;;;;;;5011351;28;20082;-74
2023/12/14 01:48:30;;;;;;;42.95;22.33;;;9.50;99.90;;;;;;5010709;28;20014;-73
2023/12/14 01:50:56;;;;;;;51.13;24.73;;;9.50;99.90;;;;;;5011265;28;20038;-71
2023/12/14 01:53:22;;;;;;;54.33;24.88;;;9.40;99.90;;;;;;5008809;28;20390;-72
2023/12/14 01:55:48;;;;;;;63.92;26.42;;;9.40;99.90;;;;;;5010252;28;20073;-71
2023/12/14 01:58:13;;;;;;;49.65;23.52;;;9.30;99.90;;;;;;5010620;28;20068;-71
2023/12/14 02:01:02;;;;;;;51.13;23.42;;;9.40;99.90;;;;;;5009118;28;20486;-71
2023/12/14 02:03:28;;;;;;;70.85;27.77;;;9.40;99.90;;;;;;5006571;28;20068;-70
2023/12/14 02:05:53;;;;;;;57.17;27.08;;;9.30;99.90;;;;;;5010282;28;20057;-71
2023/12/14 02:08:19;;;;;;;63.40;26.88;;;9.30;99.90;;;;;;5006233;28;20467;-71
2023/12/14 02:10:45;;;;;;;55.15;26.45;;;9.20;99.90;;;;;;5008720;28;20041;-72
2023/12/14 02:13:10;;;;;;;82.97;28.42;;;9.30;99.90;;;;;;5008709;28;20033;-71
2023/12/14 02:15:36;;;;;;;70.82;27.35;;;9.20;99.90;;;;;;5008300;28;20038;-71
2023/12/14 02:18:02;;;;;;;64.43;26.45;;;9.10;99.90;;;;;;5010341;28;20030;-71
2023/12/14 02:20:28;;;;;;;65.68;26.55;;;9.20;99.90;;;;;;5012706;28;20034;-72
2023/12/14 02:22:58;;;;;;;67.63;25.92;;;9.10;99.90;;;;;;5012456;28;20029;-71
2023/12/14 02:25:24;;;;;;;64.63;26.17;;;9.10;99.90;;;;;;5014170;28;20497;-71
2023/12/14 02:27:51;;;;;;;63.92;26.60;;;9.10;99.90;;;;;;5013460;28;20079;-73
2023/12/14 02:30:17;;;;;;;73.15;26.98;;;9.20;99.90;;;;;;5012015;28;20026;-71
2023/12/14 02:32:43;;;;;;;76.45;27.63;;;9.20;99.90;;;;;;4995707;28;20025;-72
2023/12/14 02:35:09;;;;;;;61.28;26.17;;;9.10;99.90;;;;;;5011902;28;20042;-70
2023/12/14 02:37:40;;;;;;;62.88;27.35;;;9.00;99.90;;;;;;5012860;28;20217;-71
2023/12/14 02:40:07;;;;;;;105.63;30.25;;;9.00;99.90;;;;;;5012303;28;20026;-71
2023/12/14 02:42:33;;;;;;;57.50;26.52;;;8.90;99.90;;;;;;5012895;28;20036;-72
2023/12/14 02:44:59;;;;;;;82.85;29.92;;;8.90;99.90;;;;;;5010287;28;20483;-71
2023/12/14 02:47:24;;;;;;;66.47;26.02;;;8.90;99.90;;;;;;5013728;28;20045;-72
2023/12/14 02:49:50;;;;;;;55.45;24.33;;;8.90;99.90;;;;;;5013975;28;20022;-71
2023/12/14 02:52:16;;;;;;;55.10;24.05;;;8.90;99.90;;;;;;5012728;28;20034;-71
2023/12/14 02:54:41;;;;;;;56.70;23.48;;;8.90;99.90;;;;;;5012389;28;20101;-75
2023/12/14 02:57:07;;;;;;;53.38;22.40;;;8.90;99.90;;;;;;5011147;28;20029;-73
2023/12/14 02:59:33;;;;;;;61.60;24.52;;;8.80;99.90;;;;;;5013160;28;20494;-75
2023/12/14 03:01:59;;;;;;;59.33;24.55;;;8.80;99.90;;;;;;5009934;28;20096;-71
2023/12/14 03:04:25;;;;;;;49.88;21.70;;;8.70;99.90;;;;;;5013783;28;20080;-71
2023/12/14 03:06:51;;;;;;;50.35;22.35;;;8.80;99.90;;;;;;5009522;28;20026;-70
2023/12/14 03:09:18;;;;;;;50.15;22.08;;;8.90;99.90;;;;;;5012461;28;20030;-71
2023/12/14 03:11:44;;;;;;;44.10;22.23;;;9.00;99.90;;;;;;5006943;28;20081;-72
2023/12/14 03:14:10;;;;;;;44.50;20.90;;;8.90;99.90;;;;;;5008354;28;20483;-71
2023/12/14 03:16:36;;;;;;;40.25;20.52;;;8.90;99.90;;;;;;5013523;28;20617;-72
2023/12/14 03:19:03;;;;;;;36.75;18.55;;;8.90;99.90;;;;;;5010003;28;20022;-72
2023/12/14 03:21:29;;;;;;;35.05;19.30;;;8.80;99.90;;;;;;5012346;28;20022;-72
2023/12/14 03:23:55;;;;;;;36.92;19.50;;;8.90;99.90;;;;;;5012326;28;20045;-71
2023/12/14 03:26:20;;;;;;;33.40;18.85;;;8.80;99.90;;;;;;5008511;28;20471;-73
2023/12/14 03:28:46;;;;;;;30.45;17.38;;;8.80;99.90;;;;;;5011822;28;20041;-72
2023/12/14 03:31:15;;;;;;;30.77;16.70;;;8.90;99.90;;;;;;5009840;28;20038;-71
2023/12/14 03:33:42;;;;;;;31.98;17.08;;;8.90;99.90;;;;;;5011945;28;20029;-71
2023/12/14 03:36:08;;;;;;;29.50;16.23;;;8.80;99.90;;;;;;5011743;28;20038;-71
2023/12/14 03:38:34;;;;;;;31.35;16.42;;;8.70;99.90;;;;;;5009679;28;20387;-72
2023/12/14 03:41:00;;;;;;;35.17;17.40;;;8.70;99.90;;;;;;5011873;28;20022;-71
2023/12/14 03:43:25;;;;;;;30.70;16.08;;;8.70;99.90;;;;;;5010695;28;20747;-73
2023/12/14 03:45:51;;;;;;;30.48;16.50;;;8.80;99.90;;;;;;5012826;28;20159;-73
2023/12/14 03:48:17;;;;;;;30.85;16.83;;;8.80;99.90;;;;;;5008985;28;20748;-71
2023/12/14 03:50:42;;;;;;;27.80;16.38;;;8.80;99.90;;;;;;5011348;28;20026;-71
2023/12/14 03:53:09;;;;;;;27.55;16.02;;;8.90;99.90;;;;;;5011834;28;20112;-71
2023/12/14 03:55:34;;;;;;;31.42;17.13;;;8.80;99.90;;;;;;5009349;28;20038;-72
2023/12/14 03:58:00;;;;;;;30.58;16.88;;;8.80;99.90;;;;;;4994792;28;20034;-72
2023/12/14 04:00:26;;;;;;;30.48;16.45;;;8.80;99.90;;;;;;4995586;28;20084;-72
2023/12/14 04:02:52;;;;;;;33.95;18.38;;;8.80;99.90;;;;;;5013047;28;20030;-71
2023/12/14 04:05:18;;;;;;;32.70;18.33;;;8.80;99.90;;;;;;5011489;28;20022;-71
2023/12/14 04:07:44;;;;;;;32.10;18.15;;;8.80;99.90;;;;;;5013299;28;20026;-71
2023/12/14 04:10:10;;;;;;;37.85;18.35;;;8.80;99.90;;;;;;5010455;28;20018;-71
2023/12/14 04:12:37;;;;;;;34.10;18.40;;;8.70;99.90;;;;;;5009948;28;20022;-74
2023/12/14 04:15:04;;;;;;;35.90;18.15;;;8.60;99.90;;;;;;5011615;28;20394;-72
2023/12/14 04:17:31;;;;;;;31.63;17.20;;;8.60;99.90;;;;;;5008701;28;20057;-71
2023/12/14 04:19:57;;;;;;;32.70;18.00;;;8.60;99.90;;;;;;5011623;28;20026;-73
2023/12/14 04:22:23;;;;;;;37.63;19.25;;;8.60;99.90;;;;;;5007473;28;20033;-71
2023/12/14 04:24:48;;;;;;;39.58;21.67;;;8.50;99.90;;;;;;5010251;28;20433;-70
2023/12/14 04:27:15;;;;;;;39.85;20.38;;;8.60;99.90;;;;;;5011736;28;20026;-72
2023/12/14 04:29:40;;;;;;;42.85;20.85;;;8.50;99.90;;;;;;5009024;28;20032;-70
2023/12/14 04:32:06;;;;;;;35.17;18.80;;;8.50;99.90;;;;;;5011496;28;20038;-70
2023/12/14 04:34:32;;;;;;;37.83;18.95;;;8.50;99.90;;;;;;5011926;28;20073;-71
2023/12/14 04:36:58;;;;;;;34.67;18.60;;;8.50;99.90;;;;;;5008338;28;20418;-71
2023/12/14 04:39:27;;;;;;;35.03;18.40;;;8.40;99.90;;;;;;5010831;28;20026;-72
2023/12/14 04:41:53;;;;;;;33.92;18.88;;;8.40;99.90;;;;;;5007513;28;20026;-71
2023/12/14 04:44:20;;;;;;;33.65;18.35;;;8.50;99.90;;;;;;5011837;28;20033;-71
2023/12/14 04:46:46;;;;;;;33.55;17.58;;;8.50;99.90;;;;;;5008911;28;20037;-72
2023/12/14 04:49:12;;;;;;;34.65;18.08;;;8.50;99.90;;;;;;5010995;28;20030;-70
2023/12/14 04:51:37;;;;;;;35.55;18.52;;;8.50;99.90;;;;;;5011023;28;20497;-72
2023/12/14 04:54:04;;;;;;;37.05;19.95;;;8.50;99.90;;;;;;5007186;28;20820;-72
2023/12/14 04:56:29;;;;;;;36.67;19.90;;;8.50;99.90;;;;;;5010738;28;20033;-71
2023/12/14 04:58:55;;;;;;;38.65;19.63;;;8.60;99.90;;;;;;5011498;28;20068;-71
2023/12/14 05:01:21;;;;;;;36.85;19.88;;;8.50;99.90;;;;;;5010629;28;20030;-71
2023/12/14 05:03:47;;;;;;;38.78;20.88;;;8.50;99.90;;;;;;5008117;28;20479;-71
2023/12/14 05:06:12;;;;;;;37.15;20.42;;;8.60;99.90;;;;;;5011174;28;20426;-71
2023/12/14 05:08:38;;;;;;;37.53;20.17;;;8.60;99.90;;;;;;5006507;28;20030;-71
2023/12/14 05:11:04;;;;;;;32.97;18.42;;;8.60;99.90;;;;;;5010209;28;20387;-71
2023/12/14 05:13:30;;;;;;;33.25;19.85;;;8.60;99.90;;;;;;5009943;28;20056;-71
2023/12/14 05:15:57;;;;;;;36.65;19.33;;;8.70;99.90;;;;;;5008463;28;20057;-71
2023/12/14 05:18:23;;;;;;;32.72;19.60;;;8.70;99.90;;;;;;4993210;28;20022;-71
2023/12/14 05:20:50;;;;;;;37.13;19.77;;;8.70;99.90;;;;;;5008401;28;20487;-71
2023/12/14 05:23:15;;;;;;;35.78;19.42;;;8.80;99.90;;;;;;5009514;28;20514;-71
2023/12/14 05:25:41;;;;;;;33.63;19.40;;;8.80;99.90;;;;;;5011104;28;20061;-71
2023/12/14 05:28:07;;;;;;;36.95;19.88;;;8.80;99.90;;;;;;5010784;28;20387;-71
2023/12/14 05:30:33;;;;;;;33.28;18.90;;;8.80;99.90;;;;;;5008828;28;20113;-72
2023/12/14 05:32:58;;;;;;;32.45;20.05;;;8.90;99.90;;;;;;5010402;28;20030;-72
2023/12/14 05:35:24;;;;;;;38.20;20.75;;;8.80;99.90;;;;;;5007087;28;20950;-72
2023/12/14 05:37:51;;;;;;;37.15;20.90;;;8.80;99.90;;;;;;5010353;28;20494;-73
2023/12/14 05:40:16;;;;;;;34.67;19.88;;;8.80;99.90;;;;;;5008220;28;20034;-71
2023/12/14 05:42:42;;;;;;;36.88;21.33;;;8.80;99.90;;;;;;5010863;28;20033;-71
2023/12/14 05:45:09;;;;;;;35.30;20.88;;;8.80;99.90;;;;;;5010412;28;20078;-71
2023/12/14 05:47:35;;;;;;;38.35;21.17;;;8.70;99.90;;;;;;5007718;28;20061;-71
2023/12/14 05:50:01;;;;;;;32.92;18.85;;;8.80;99.90;;;;;;5010188;28;20116;-71
2023/12/14 05:52:27;;;;;;;38.35;20.38;;;8.70;99.90;;;;;;5010570;28;20487;-70
2023/12/14 05:54:53;;;;;;;36.13;19.70;;;8.60;99.90;;;;;;5010281;28;20030;-71
2023/12/14 05:57:19;;;;;;;38.25;19.90;;;8.40;99.90;;;;;;5013484;28;20037;-71
2023/12/14 05:59:45;;;;;;;35.55;19.35;;;8.50;99.90;;;;;;5012750;28;20037;-70
2023/12/14 06:02:10;;;;;;;33.35;18.60;;;8.50;99.90;;;;;;5013037;28;20026;-71
2023/12/14 06:04:36;;;;;;;35.05;19.55;;;8.60;99.90;;;;;;5013340;28;20105;-71
2023/12/14 06:07:02;;;;;;;34.75;20.02;;;8.50;99.90;;;;;;5011842;28;20084;-72
2023/12/14 06:09:34;;;;;;;34.63;19.35;;;8.40;99.90;;;;;;5014434;28;20030;-71
2023/12/14 06:12:01;;;;;;;34.38;19.90;;;8.40;99.90;;;;;;5013925;28;20021;-71
2023/12/14 06:14:27;;;;;;;35.92;19.85;;;8.40;99.90;;;;;;5012031;28;20100;-70
2023/12/14 06:16:53;;;;;;;34.13;19.42;;;8.50;99.90;;;;;;5014079;28;20441;-71
2023/12/14 06:19:18;;;;;;;31.73;18.35;;;8.50;99.90;;;;;;5013580;28;20038;-71
2023/12/14 06:21:44;;;;;;;35.80;20.30;;;8.40;99.90;;;;;;5013571;28;20025;-72
2023/12/14 06:24:10;;;;;;;32.67;18.60;;;8.40;99.90;;;;;;5012858;28;20041;-71
2023/12/14 06:26:44;;;;;;;36.47;20.20;;;8.50;99.90;;;;;;5011496;28;20113;-70
2023/12/14 06:29:10;;;;;;;38.47;21.13;;;8.40;99.90;;;;;;5012890;28;20511;-71
2023/12/14 06:31:37;;;;;;;32.30;19.73;;;8.40;99.90;;;;;;5013635;28;20014;-70
2023/12/14 06:34:03;;;;;;;35.30;19.83;;;8.50;99.90;;;;;;5013834;28;20034;-71
2023/12/14 06:36:34;;;;;;;40.30;22.75;;;8.50;99.90;;;;;;5012859;28;20042;-71
2023/12/14 06:39:00;;;;;;;35.83;20.35;;;8.60;99.90;;;;;;5013735;28;20030;-70
2023/12/14 06:41:28;;;;;;;38.70;20.95;;;8.60;99.90;;;;;;5008803;28;20026;-71
2023/12/14 06:43:54;;;;;;;39.63;22.40;;;8.60;99.90;;;;;;5013778;28;20521;-71
2023/12/14 06:46:21;;;;;;;39.83;22.33;;;8.50;99.90;;;;;;5013325;28;20030;-71
2023/12/14 06:48:47;;;;;;;37.95;21.20;;;8.50;99.90;;;;;;5012978;28;20029;-71
2023/12/14 06:51:13;;;;;;;36.80;19.80;;;8.50;99.90;;;;;;5013546;28;20399;-71
2023/12/14 06:53:43;;;;;;;37.30;21.00;;;8.50;99.90;;;;;;5010568;28;20030;-71
2023/12/14 06:56:10;;;;;;;35.25;19.60;;;8.50;99.90;;;;;;5012895;28;20048;-71
2023/12/14 06:58:44;;;;;;;37.92;21.42;;;8.50;99.90;;;;;;5014641;28;20084;-71
2023/12/14 07:01:19;;;;;;;36.28;21.35;;;8.50;99.90;;;;;;5010233;28;20025;-71
2023/12/14 07:03:45;;;;;;;35.08;20.70;;;8.50;99.90;;;;;;5013367;28;20034;-71
2023/12/14 07:06:15;;;;;;;38.13;20.63;;;8.60;99.90;;;;;;5009483;28;20036;-71
2023/12/14 07:08:41;;;;;;;36.20;20.50;;;8.60;99.90;;;;;;5012157;28;20105;-72
2023/12/14 07:11:08;;;;;;;35.42;20.23;;;8.70;99.90;;;;;;5011681;28;20030;-74
2023/12/14 07:13:36;;;;;;;37.38;20.55;;;8.60;99.90;;;;;;5013240;28;20087;-72
2023/12/14 07:16:04;;;;;;;38.55;21.77;;;8.70;99.90;;;;;;5008423;28;20070;-73
2023/12/14 07:18:30;;;;;;;37.55;21.80;;;8.80;99.90;;;;;;5011866;28;20513;-72
2023/12/14 07:20:56;;;;;;;39.03;22.25;;;8.80;99.90;;;;;;5010213;28;20030;-72
2023/12/14 07:23:22;;;;;;;39.13;20.92;;;8.80;99.90;;;;;;5011109;28;20521;-72
2023/12/14 07:25:48;;;;;;;35.90;20.33;;;8.70;99.90;;;;;;5011423;28;20037;-72
2023/12/14 07:28:14;;;;;;;35.30;19.90;;;8.80;99.90;;;;;;5011007;28;20454;-72
2023/12/14 07:30:40;;;;;;;32.38;19.05;;;8.70;99.90;;;;;;5009063;28;20034;-72
2023/12/14 07:33:05;;;;;;;38.03;23.08;;;8.70;99.90;;;;;;5012050;28;20029;-71
2023/12/14 07:35:31;;;;;;;32.83;19.98;;;8.70;99.90;;;;;;5010038;28;20760;-72
2023/12/14 07:37:57;;;;;;;32.85;19.88;;;8.70;99.90;;;;;;5012367;28;20479;-72
2023/12/14 07:40:22;;;;;;;37.33;21.48;;;8.70;99.90;;;;;;5009544;28;20459;-72
2023/12/14 07:42:48;;;;;;;36.28;20.42;;;8.80;99.90;;;;;;5011960;28;20107;-71
2023/12/14 07:45:14;;;;;;;32.88;20.10;;;8.70;99.90;;;;;;4994157;28;20038;-71
2023/12/14 07:47:40;;;;;;;31.92;18.88;;;8.70;99.90;;;;;;5010055;28;20026;-71
2023/12/14 07:50:06;;;;;;;32.13;20.30;;;8.70;99.90;;;;;;5012845;28;20058;-71
2023/12/14 07:52:31;;;;;;;33.22;20.08;;;8.60;99.90;;;;;;5010759;28;20029;-72
2023/12/14 07:54:57;;;;;;;30.75;18.80;;;8.60;99.90;;;;;;5010442;28;20034;-71
2023/12/14 07:57:23;;;;;;;32.00;21.02;;;8.60;99.90;;;;;;5009016;28;20038;-71
2023/12/14 07:59:49;;;;;;;32.13;20.52;;;8.60;99.90;;;;;;5011109;28;20026;-71
2023/12/14 08:02:15;;;;;;;38.05;21.58;;;8.70;99.90;;;;;;5011403;28;20113;-71
2023/12/14 08:04:41;;;;;;;37.35;20.27;;;8.70;99.90;;;;;;5006527;28;20036;-72
2023/12/14 08:07:06;;;;;;;38.90;20.52;;;8.70;99.90;;;;;;5010805;28;20385;-71
2023/12/14 08:09:33;;;;;;;35.83;19.05;;;8.50;99.90;;;;;;5007219;28;20096;-70
2023/12/14 08:11:58;;;;;;;37.08;22.13;;;8.50;99.90;;;;;;5009549;28;20030;-73
2023/12/14 08:14:24;;;;;;;36.83;20.30;;;8.50;99.90;;;;;;5011704;28;20529;-72
2023/12/14 08:16:54;;;;;;;37.92;18.85;;;8.40;99.90;;;;;;5009233;28;20084;-72
2023/12/14 08:19:20;;;;;;;37.15;19.77;;;8.40;99.90;;;;;;5009556;28;20149;-73
2023/12/14 08:21:46;;;;;;;40.95;21.80;;;8.40;99.90;;;;;;5007236;28;20030;-71
2023/12/14 08:24:12;;;;;;;39.13;21.58;;;8.40;99.90;;;;;;5007745;28;20033;-74
2023/12/14 08:26:37;;;;;;;41.15;21.88;;;8.40;99.90;;;;;;5011498;28;20433;-71
2023/12/14 08:29:03;;;;;;;39.17;20.52;;;8.20;99.90;;;;;;5009177;28;20097;-72
2023/12/14 08:31:29;;;;;;;44.38;23.48;;;8.20;99.90;;;;;;5010594;28;20056;-71
2023/12/14 08:33:54;;;;;;;41.63;21.58;;;8.30;99.90;;;;;;4994616;28;20092;-71
2023/12/14 08:36:20;;;;;;;36.50;19.77;;;8.20;99.90;;;;;;5010351;28;20037;-72
2023/12/14 08:38:46;;;;;;;43.30;22.67;;;8.30;99.90;;;;;;4991560;28;20120;-72
2023/12/14 08:41:17;;;;;;;41.83;21.27;;;8.30;99.90;;;;;;5005148;28;20034;-71
2023/12/14 08:43:53;;;;;;;42.72;20.88;;;8.30;99.90;;;;;;4987369;28;20030;-72
2023/12/14 08:46:19;;;;;;;40.92;21.42;;;8.30;99.90;;;;;;4976152;28;20923;-70
2023/12/14 08:48:44;;;;;;;43.30;21.20;;;8.40;99.90;;;;;;4990531;28;20030;-71
2023/12/14 08:51:11;;;;;;;40.92;21.10;;;8.50;99.90;;;;;;5011066;28;20046;-70
2023/12/14 08:53:36;;;;;;;43.67;21.95;;;8.50;99.90;;;;;;5008720;28;20052;-71
2023/12/14 08:56:03;;;;;;;40.33;20.48;;;8.50;99.90;;;;;;4993315;28;20045;-71
2023/12/14 08:58:29;;;;;;;42.97;21.17;;;8.60;99.90;;;;;;5009466;28;20088;-71
2023/12/14 09:00:55;;;;;;;37.85;19.00;;;8.50;99.90;;;;;;5009152;28;20417;-71
2023/12/14 09:03:23;;;;;;;37.63;19.85;;;8.50;99.90;;;;;;5003206;28;20022;-73
2023/12/14 09:06:02;;;;;;;39.88;19.30;;;8.40;99.90;;;;;;4992577;28;20553;-73
2023/12/14 09:08:28;;;;;;;45.03;20.58;;;8.40;99.90;;;;;;4993827;28;20022;-70
2023/12/14 09:10:53;;;;;;;44.92;18.35;;;8.40;99.90;;;;;;5008191;28;20076;-69
2023/12/14 09:13:19;;;;;;;42.78;21.48;;;8.40;99.90;;;;;;5006631;28;20585;-71
2023/12/14 09:15:45;;;;;;;39.50;20.67;;;8.40;99.90;;;;;;5007429;28;20875;-71
2023/12/14 09:18:23;;;;;;;40.67;19.25;;;8.40;99.90;;;;;;5010788;28;20018;-70
2023/12/14 09:20:50;;;;;;;36.15;19.23;;;8.40;99.90;;;;;;5007895;28;20029;-71
2023/12/14 09:23:16;;;;;;;43.03;20.48;;;8.40;99.90;;;;;;5009353;28;20456;-73
2023/12/14 09:25:42;;;;;;;37.70;18.83;;;8.40;99.90;;;;;;5008747;28;20064;-73
2023/12/14 09:28:08;;;;;;;40.72;20.00;;;8.50;99.90;;;;;;5009426;28;20049;-75
2023/12/14 09:30:34;;;;;;;43.78;19.83;;;8.50;99.90;;;;;;5010397;28;20419;-73
2023/12/14 09:32:59;;;;;;;42.50;20.23;;;8.50;99.90;;;;;;5014906;28;20117;-73
2023/12/14 09:35:25;;;;;;;45.00;20.52;;;8.40;99.90;;;;;;5013923;28;20029;-72
2023/12/14 09:37:52;;;;;;;44.20;21.05;;;8.60;99.90;;;;;;5009404;28;20501;-72
2023/12/14 09:40:19;;;;;;;37.65;18.92;;;8.60;99.90;;;;;;5014028;28;20026;-72
2023/12/14 09:42:45;;;;;;;35.13;19.50;;;8.60;99.90;;;;;;5011451;28;20095;-75
2023/12/14 09:45:11;;;;;;;36.25;18.27;;;8.60;99.90;;;;;;5013115;28;20486;-72
2023/12/14 09:47:37;;;;;;;33.38;18.38;;;8.60;99.90;;;;;;5010470;28;20037;-72
2023/12/14 09:50:04;;;;;;;34.05;18.23;;;8.60;99.90;;;;;;5012656;28;20033;-72
2023/12/14 09:52:31;;;;;;;33.97;18.73;;;8.50;99.90;;;;;;5013621;28;20030;-73
2023/12/14 09:54:56;;;;;;;32.30;17.65;;;8.50;99.90;;;;;;5012318;28;20022;-71
2023/12/14 09:57:23;;;;;;;35.55;19.20;;;8.60;99.90;;;;;;5010299;28;20049;-73
2023/12/14 09:59:55;;;;;;;29.38;16.70;;;8.60;99.90;;;;;;5012784;28;20107;-70
2023/12/14 10:02:26;;;;;;;29.33;16.00;;;8.60;99.90;;;;;;5011515;28;20053;-71
2023/12/14 10:04:52;;;;;;;29.50;16.10;;;8.60;99.90;;;;;;5012923;28;20026;-72
2023/12/14 10:07:19;;;;;;;26.38;15.27;;;8.50;99.90;;;;;;5014865;28;20105;-74
2023/12/14 10:09:45;;;;;;;23.92;15.10;;;8.40;99.90;;;;;;5013547;28;20084;-71
2023/12/14 10:12:11;;;;;;;22.75;14.07;;;8.40;99.90;;;;;;5014672;28;20074;-71
2023/12/14 10:14:38;;;;;;;25.25;15.23;;;8.30;99.90;;;;;;5014314;28;20026;-71
2023/12/14 10:17:28;;;;;;;23.83;13.93;;;8.40;99.90;;;;;;5011456;28;20540;-70
2023/12/14 10:19:55;;;;;;;20.83;12.90;;;8.40;99.90;;;;;;5010170;28;20017;-71
2023/12/14 10:22:20;;;;;;;22.95;13.95;;;8.30;99.90;;;;;;5009787;28;20532;-74
2023/12/14 10:24:49;;;;;;;20.95;13.23;;;8.30;99.90;;;;;;5008764;28;20044;-74
2023/12/14 10:27:16;;;;;;;19.88;12.57;;;8.40;99.90;;;;;;5013681;28;20026;-72
2023/12/14 10:29:44;;;;;;;23.85;14.70;;;8.40;99.90;;;;;;5010573;28;20050;-71
2023/12/14 10:32:11;;;;;;;20.98;12.80;;;8.40;99.90;;;;;;4994094;28;20030;-75
2023/12/14 10:34:37;;;;;;;18.55;12.93;;;8.40;99.90;;;;;;5008916;28;20031;-75
2023/12/14 10:37:06;;;;;;;22.80;13.13;;;8.30;99.90;;;;;;5012952;28;20498;-73
2023/12/14 10:39:37;;;;;;;23.35;14.13;;;8.30;99.90;;;;;;5009308;28;20099;-71
2023/12/14 10:42:04;;;;;;;22.50;13.68;;;8.30;99.90;;;;;;5011128;28;20049;-72
2023/12/14 10:44:35;;;;;;;23.13;13.15;;;8.40;99.90;;;;;;5008879;28;20021;-71
2023/12/14 10:47:04;;;;;;;23.58;14.00;;;8.50;99.90;;;;;;5000231;28;20030;-76
2023/12/14 10:49:30;;;;;;;23.80;14.85;;;8.60;99.90;;;;;;5002890;28;20383;-72
2023/12/14 10:51:58;;;;;;;21.33;13.10;;;8.60;99.90;;;;;;5010260;28;20034;-72
2023/12/14 10:54:26;;;;;;;22.20;14.13;;;8.70;99.90;;;;;;5012671;28;20406;-72
2023/12/14 10:56:56;;;;;;;19.85;13.52;;;8.70;99.90;;;;;;5012298;28;20116;-71
2023/12/14 10:59:23;;;;;;;20.45;13.40;;;8.80;99.90;;;;;;5002836;28;20037;-71
2023/12/14 11:01:57;;;;;;;19.55;13.45;;;8.90;99.90;;;;;;5006197;28;20422;-70
2023/12/14 11:04:22;;;;;;;21.67;13.60;;;8.90;99.90;;;;;;5010998;28;20022;-71
2023/12/14 11:06:48;;;;;;;18.10;11.32;;;9.00;99.90;;;;;;5009570;28;20036;-70
2023/12/14 11:09:18;;;;;;;17.75;12.32;;;9.00;99.90;;;;;;5012222;28;20533;-70
2023/12/14 11:11:59;;;;;;;19.63;12.00;;;9.00;99.90;;;;;;5009952;28;20402;-70
2023/12/14 11:14:27;;;;;;;15.85;11.70;;;8.90;99.90;;;;;;5012289;28;20022;-71
2023/12/14 11:17:12;;;;;;;17.30;11.85;;;8.80;99.90;;;;;;5008641;28;20046;-70
2023/12/14 11:19:39;;;;;;;15.23;11.00;;;8.80;99.90;;;;;;5007142;28;20382;-71
2023/12/14 11:22:07;;;;;;;17.98;10.93;;;8.80;99.90;;;;;;5011354;28;20065;-70
2023/12/14 11:24:35;;;;;;;15.02;10.38;;;8.80;99.90;;;;;;5009303;28;20030;-71
2023/12/14 11:27:06;;;;;;;15.98;10.32;;;8.90;99.90;;;;;;5006612;28;20030;-72
2023/12/14 11:29:31;;;;;;;15.07;10.07;;;8.80;99.90;;;;;;4993460;28;20399;-73
2023/12/14 11:31:58;;;;;;;15.88;10.02;;;8.80;99.90;;;;;;4993146;28;20029;-71
2023/12/14 11:34:27;;;;;;;20.00;10.48;;;8.80;99.90;;;;;;5006503;28;20466;-71
2023/12/14 11:36:55;;;;;;;17.30;10.05;;;8.80;99.90;;;;;;5012087;28;20432;-71
2023/12/14 11:39:21;;;;;;;13.90;9.30;;;8.80;99.90;;;;;;5007975;28;20022;-71
2023/12/14 11:42:10;;;;;;;15.13;10.48;;;8.80;99.90;;;;;;5009218;28;20041;-71
2023/12/14 11:44:37;;;;;;;15.82;10.85;;;8.90;99.90;;;;;;5007288;28;20030;-71
2023/12/14 11:47:03;;;;;;;16.80;11.10;;;8.90;99.90;;;;;;5011223;28;20026;-71
2023/12/14 11:49:29;;;;;;;16.20;11.23;;;8.90;99.90;;;;;;5010264;28;20038;-72
2023/12/14 11:51:55;;;;;;;18.17;11.52;;;8.90;99.90;;;;;;4984528;28;21516;-71
2023/12/14 11:54:24;;;;;;;17.10;11.18;;;8.80;99.90;;;;;;4989553;28;20061;-71
2023/12/14 11:56:50;;;;;;;16.42;10.90;;;8.80;99.90;;;;;;4996368;28;20074;-70
2023/12/14 11:59:17;;;;;;;18.00;11.23;;;8.80;99.90;;;;;;4997406;28;20038;-71
2023/12/14 12:02:00;;;;;;;14.57;11.00;;;8.70;99.90;;;;;;4995057;28;20013;-71
2023/12/14 12:04:26;;;;;;;18.20;10.77;;;8.70;99.90;;;;;;4990103;28;20109;-70
2023/12/14 12:07:03;;;;;;;14.77;10.32;;;8.70;99.90;;;;;;4997651;28;20235;-71
2023/12/14 12:09:36;;;;;;;20.70;10.75;;;8.70;99.90;;;;;;4994515;28;20023;-72
2023/12/14 12:12:02;;;;;;;;;;;8.70;99.90;;;;;;4994017;28;20050;-70
2023/12/14 12:14:28;;;;;;;16.00;10.68;;;8.80;99.90;;;;;;4991076;28;19979;-75
2023/12/14 12:16:55;;;;;;;16.58;11.20;;;8.90;99.90;;;;;;4995491;28;20116;-70
2023/12/14 12:19:20;;;;;;;15.20;10.93;;;8.80;99.90;;;;;;4993340;28;20015;-70
2023/12/14 12:21:46;;;;;;;17.92;10.98;;;8.80;99.90;;;;;;4993674;28;20113;-69
2023/12/14 12:24:12;;;;;;;16.77;11.25;;;8.70;99.90;;;;;;4997817;28;20100;-71
2023/12/14 12:26:37;;;;;;;19.42;10.60;;;8.80;99.90;;;;;;4996146;28;20096;-72
2023/12/14 12:29:05;;;;;;;28.80;12.73;;;8.80;99.90;;;;;;4994387;28;20475;-71
2023/12/14 12:31:32;;;;;;;14.65;10.63;;;8.80;99.90;;;;;;4995332;28;20056;-71
2023/12/14 12:33:57;;;;;;;15.65;10.20;;;8.80;99.90;;;;;;4996119;28;20053;-71